Aviation Digital Data Service (ADDS)

Output produced by METARs form (2127 UTC 24 May 2017)
found at http://aviationweather.gov/adds/metars/
 
KROC 242039Z 2421/2518 12012G20KT P6SM SCT200 
     FM242300 11008KT P6SM BKN150 
     FM250800 11008KT P6SM -RA OVC060 
     FM251100 10010KT 6SM RA OVC020 
     FM251300 10010G16KT 5SM RA OVC015 
     FM251500 08009KT 5SM -RA OVC007